Time;durP1;ratioP1;P1;durP2;ratioP2;P2;SDS_P1;SDS_P2;PMS_P1;PMS_P2;Temp;Humidity;BMP_temperature;BMP_pressure;BME280_temperature;BME280_humidity;BME280_pressure;Samples;Min_cycle;Max_cycle;Signal;HPM_P1;HPM_P2
2023/07/19 00:01:10;;;;;;;7.80;6.22;;;;;;;28.59;57.11;100778.69;5066829;28;20045;-59
2023/07/19 00:03:37;;;;;;;9.88;6.80;;;;;;;28.61;57.20;100783.13;5058652;28;20056;-59
2023/07/19 00:06:05;;;;;;;7.05;5.60;;;;;;;28.63;57.21;100772.84;5056002;28;20527;-59
2023/07/19 00:08:32;;;;;;;6.82;6.00;;;;;;;28.63;56.78;100764.69;5055444;28;20056;-59
2023/07/19 00:11:00;;;;;;;9.77;6.13;;;;;;;28.64;57.25;100767.19;5056949;28;20111;-59
2023/07/19 00:13:28;;;;;;;8.75;6.10;;;;;;;28.65;57.18;100771.63;5064009;28;20041;-59
2023/07/19 00:15:55;;;;;;;7.68;5.80;;;;;;;28.66;57.29;100759.69;5060665;28;20040;-59
2023/07/19 00:18:22;;;;;;;6.70;6.00;;;;;;;28.67;57.24;100757.81;5071004;28;20052;-54
2023/07/19 00:20:50;;;;;;;6.20;5.60;;;;;;;28.67;57.22;100775.00;5065592;28;20428;-54
2023/07/19 00:23:17;;;;;;;7.88;6.38;;;;;;;28.68;56.75;100782.13;5067798;28;20049;-53
2023/07/19 00:25:45;;;;;;;7.25;5.75;;;;;;;28.69;56.73;100783.81;5071601;28;20049;-53
2023/07/19 00:28:13;;;;;;;6.60;5.90;;;;;;;28.70;57.12;100788.22;5067098;28;20040;-59
2023/07/19 00:30:41;;;;;;;7.47;6.35;;;;;;;28.71;56.81;100789.91;5080028;28;20527;-59
2023/07/19 00:33:08;;;;;;;6.38;5.78;;;;;;;28.73;56.82;100789.72;5058905;28;20057;-59
2023/07/19 00:35:42;;;;;;;6.53;5.80;;;;;;;28.72;57.07;100783.41;5062806;28;20056;-59
2023/07/19 00:38:10;;;;;;;7.30;5.63;;;;;;;28.73;56.66;100790.56;5055283;28;20053;-54
2023/07/19 00:40:38;;;;;;;7.28;6.13;;;;;;;28.76;56.97;100805.66;5061486;28;20045;-54
2023/07/19 00:43:10;;;;;;;6.38;5.40;;;;;;;28.75;56.82;100813.00;5060750;28;20044;-54
2023/07/19 00:45:45;;;;;;;7.43;6.13;;;;;;;28.76;56.76;100816.56;5059406;28;20049;-53
2023/07/19 00:48:17;;;;;;;8.02;6.43;;;;;;;28.77;56.97;100819.13;5063285;28;20416;-59
2023/07/19 00:50:47;;;;;;;7.38;5.75;;;;;;;28.78;56.93;100819.94;5067396;28;20147;-59
2023/07/19 00:53:15;;;;;;;7.10;5.70;;;;;;;28.79;56.92;100813.47;5059806;28;20048;-59
2023/07/19 00:55:47;;;;;;;6.40;5.80;;;;;;;28.78;57.01;100842.59;5071131;28;20051;-59
2023/07/19 00:58:15;;;;;;;;;;;;;;;28.79;57.11;100840.69;5063988;28;20152;-54
2023/07/19 01:00:42;;;;;;;6.53;5.85;;;;;;;28.80;56.72;100828.75;5068883;28;20284;-53
2023/07/19 01:03:10;;;;;;;7.13;6.30;;;;;;;28.81;57.10;100842.22;5059087;28;20052;-54
2023/07/19 01:05:39;;;;;;;7.30;6.22;;;;;;;28.82;57.07;100843.88;5071020;28;20048;-51
2023/07/19 01:08:06;;;;;;;6.75;6.00;;;;;;;28.83;56.89;100839.28;5053838;28;20047;-53
2023/07/19 01:10:34;;;;;;;5.43;4.93;;;;;;;28.84;56.74;100830.06;5056179;28;20048;-54
2023/07/19 01:13:09;;;;;;;6.75;5.93;;;;;;;28.85;57.03;100841.81;5064915;28;20053;-54
2023/07/19 01:15:37;;;;;;;6.72;5.70;;;;;;;28.87;56.70;100837.00;5064811;28;20059;-54
2023/07/19 01:18:04;;;;;;;6.50;5.80;;;;;;;28.87;56.89;100828.84;5063738;28;20044;-53
2023/07/19 01:20:32;;;;;;;6.80;6.10;;;;;;;28.87;57.15;100835.13;5058575;28;20041;-55
2023/07/19 01:23:01;;;;;;;5.88;5.28;;;;;;;28.89;57.02;100834.94;5065089;28;20041;-53
2023/07/19 01:25:30;;;;;;;6.40;5.70;;;;;;;28.89;56.68;100824.03;5061556;28;20477;-53
2023/07/19 01:27:58;;;;;;;6.55;5.32;;;;;;;28.90;56.71;100823.84;5063492;28;20037;-59
2023/07/19 01:30:25;;;;;;;8.25;5.90;;;;;;;28.90;56.82;100823.84;5062486;28;20393;-59
2023/07/19 01:32:53;;;;;;;6.80;5.55;;;;;;;28.91;57.10;100830.97;5077341;28;20040;-59
2023/07/19 01:35:21;;;;;;;6.10;5.40;;;;;;;28.92;56.98;100821.75;5068141;28;20053;-59
2023/07/19 01:37:48;;;;;;;7.82;5.45;;;;;;;28.92;56.57;100819.03;5076871;28;20609;-59
2023/07/19 01:40:16;;;;;;;6.65;6.05;;;;;;;28.94;56.77;100821.56;5076185;28;20067;-59
2023/07/19 01:42:43;;;;;;;6.65;5.65;;;;;;;28.94;56.72;100824.28;5064385;28;20412;-59
2023/07/19 01:45:10;;;;;;;6.85;5.75;;;;;;;28.94;56.69;100819.69;5070230;28;20056;-59
2023/07/19 01:47:38;;;;;;;6.60;5.70;;;;;;;28.94;56.80;100819.69;5074621;28;20048;-59
2023/07/19 01:50:06;;;;;;;5.97;5.38;;;;;;;28.95;56.60;100815.91;5074687;28;20048;-59
2023/07/19 01:52:33;;;;;;;6.80;5.97;;;;;;;28.95;56.75;100805.00;5075913;28;20048;-59
2023/07/19 01:55:00;;;;;;;5.78;5.18;;;;;;;28.96;56.52;100809.41;5076802;28;20040;-59
2023/07/19 01:57:31;;;;;;;5.88;5.20;;;;;;;28.97;56.42;100797.53;5071156;28;20059;-59
2023/07/19 01:59:59;;;;;;;6.28;5.68;;;;;;;28.96;56.44;100793.06;5069560;28;20052;-59
2023/07/19 02:02:26;;;;;;;5.55;5.05;;;;;;;28.98;56.89;100799.22;5075733;28;20048;-59
2023/07/19 02:04:54;;;;;;;6.05;4.95;;;;;;;28.99;56.46;100800.03;5068642;28;20044;-59
2023/07/19 02:07:21;;;;;;;7.45;5.97;;;;;;;28.99;56.65;100798.16;5075961;28;20052;-55
2023/07/19 02:09:49;;;;;;;7.22;5.47;;;;;;;29.00;56.48;100810.75;5059140;28;20377;-59
2023/07/19 02:12:16;;;;;;;6.32;4.97;;;;;;;29.00;56.61;100802.56;5067499;28;20052;-59
2023/07/19 02:14:44;;;;;;;6.65;5.45;;;;;;;29.01;56.78;100798.81;5074883;28;20052;-59
2023/07/19 02:17:11;;;;;;;6.45;5.80;;;;;;;29.02;56.93;100788.75;5072309;28;20056;-59
2023/07/19 02:19:38;;;;;;;6.20;5.60;;;;;;;29.02;56.87;100784.16;5072600;28;20041;-60
2023/07/19 02:22:06;;;;;;;7.03;5.50;;;;;;;29.03;57.10;100782.25;5075862;28;20508;-60
2023/07/19 02:24:35;;;;;;;6.57;5.95;;;;;;;29.02;57.71;100775.97;5070759;28;20060;-60
2023/07/19 02:27:02;;;;;;;8.95;6.35;;;;;;;29.02;57.45;100784.16;5076076;28;20071;-62
2023/07/19 02:29:30;;;;;;;6.25;5.60;;;;;;;29.03;57.90;100784.97;5061143;28;20059;-60
2023/07/19 02:31:57;;;;;;;7.28;6.53;;;;;;;29.01;57.91;100777.03;5067606;28;20051;-60
2023/07/19 02:34:24;;;;;;;7.50;6.63;;;;;;;29.03;58.25;100774.09;5075802;28;20055;-60
2023/07/19 02:36:52;;;;;;;6.53;5.93;;;;;;;29.03;58.45;100777.66;5071848;28;20048;-60
2023/07/19 02:39:20;;;;;;;8.32;6.75;;;;;;;29.03;58.42;100774.91;5072036;28;20049;-60
2023/07/19 02:41:47;;;;;;;8.05;6.15;;;;;;;29.03;58.84;100771.34;5069810;28;20044;-60
2023/07/19 02:44:15;;;;;;;7.03;6.28;;;;;;;29.03;58.63;100774.91;5071148;28;20052;-60
2023/07/19 02:46:42;;;;;;;6.90;6.20;;;;;;;29.03;59.04;100763.19;5064946;28;20052;-60
2023/07/19 02:49:11;;;;;;;7.70;6.82;;;;;;;29.03;58.83;100757.72;5067912;28;20049;-60
2023/07/19 02:51:38;;;;;;;9.80;7.88;;;;;;;29.02;59.16;100767.78;5068607;28;20048;-61
2023/07/19 02:54:06;;;;;;;9.75;7.10;;;;;;;29.03;59.34;100764.00;5062882;28;20048;-61
2023/07/19 02:56:33;;;;;;;6.20;5.60;;;;;;;29.03;59.09;100757.72;5065391;28;20044;-61
2023/07/19 02:59:01;;;;;;;8.20;6.80;;;;;;;29.04;59.01;100752.06;5067791;28;20048;-62
2023/07/19 03:01:30;;;;;;;7.97;6.72;;;;;;;29.05;59.34;100755.66;5068466;28;20492;-62
2023/07/19 03:03:59;;;;;;;7.78;6.97;;;;;;;29.05;59.41;100761.94;5064691;28;20511;-62
2023/07/19 03:06:27;;;;;;;8.45;7.18;;;;;;;29.04;59.58;100760.25;5069032;28;20049;-60
2023/07/19 03:08:55;;;;;;;7.97;6.45;;;;;;;29.02;59.15;100754.16;5061259;28;20472;-60
2023/07/19 03:11:23;;;;;;;7.82;7.05;;;;;;;29.03;59.45;100753.13;5056773;28;20045;-60
2023/07/19 03:13:51;;;;;;;8.32;7.13;;;;;;;29.04;59.58;100764.84;5056064;28;20049;-60
2023/07/19 03:16:18;;;;;;;9.90;7.07;;;;;;;29.04;59.41;100765.69;5061328;28;20056;-61
2023/07/19 03:18:46;;;;;;;7.35;6.65;;;;;;;29.04;59.29;100762.13;5071348;28;20064;-62
2023/07/19 03:21:13;;;;;;;7.63;5.75;;;;;;;29.04;59.56;100762.13;5064977;28;20049;-62
2023/07/19 03:23:40;;;;;;;8.25;7.45;;;;;;;29.05;59.91;100750.22;5069804;28;20056;-61
2023/07/19 03:26:08;;;;;;;8.68;7.85;;;;;;;29.04;60.07;100752.06;5060115;28;20053;-61
2023/07/19 03:28:35;;;;;;;9.15;8.10;;;;;;;29.04;60.00;100749.34;5060828;28;20049;-62
2023/07/19 03:31:03;;;;;;;9.13;7.47;;;;;;;29.03;59.98;100747.66;5062581;28;20064;-62
2023/07/19 03:33:31;;;;;;;8.10;7.00;;;;;;;29.03;59.60;100746.81;5069646;28;20053;-62
2023/07/19 03:35:58;;;;;;;10.18;6.78;;;;;;;29.03;59.88;100746.81;5060406;28;20053;-62
2023/07/19 03:38:26;;;;;;;7.90;7.10;;;;;;;29.02;59.69;100743.25;5070974;28;20052;-60
2023/07/19 03:41:04;;;;;;;10.05;7.53;;;;;;;29.03;59.44;100744.94;5067422;28;20049;-60
2023/07/19 03:43:31;;;;;;;8.05;7.07;;;;;;;29.03;59.58;100750.38;5064519;28;20052;-60
2023/07/19 03:45:59;;;;;;;8.68;7.10;;;;;;;29.04;59.98;100754.78;5058873;28;20056;-60
2023/07/19 03:48:26;;;;;;;7.68;6.97;;;;;;;29.05;59.85;100758.38;5071236;28;20396;-60
2023/07/19 03:51:01;;;;;;;8.10;7.18;;;;;;;29.06;59.50;100749.16;5065619;28;20044;-60
2023/07/19 03:53:29;;;;;;;7.75;6.95;;;;;;;29.06;59.59;100744.53;5061330;28;20066;-60
2023/07/19 03:55:58;;;;;;;9.02;7.78;;;;;;;29.06;59.84;100751.88;5069746;28;20055;-60
2023/07/19 03:58:27;;;;;;;12.52;7.95;;;;;;;29.07;60.18;100757.13;5067305;28;20047;-60
2023/07/19 04:00:58;;;;;;;10.23;8.20;;;;;;;29.05;59.94;100759.22;5071694;28;20068;-60
2023/07/19 04:03:28;;;;;;;9.27;7.47;;;;;;;29.05;60.22;100766.56;5065972;28;20048;-60
2023/07/19 04:05:57;;;;;;;9.43;7.78;;;;;;;29.04;59.92;100756.69;5066645;28;20396;-60
2023/07/19 04:08:25;;;;;;;7.82;7.03;;;;;;;29.04;60.21;100759.41;5071139;28;20051;-60
2023/07/19 04:10:53;;;;;;;8.30;6.75;;;;;;;29.05;59.91;100755.66;5062419;28;20468;-60
2023/07/19 04:13:20;;;;;;;8.23;7.35;;;;;;;29.06;59.59;100755.44;5055261;28;20048;-60
2023/07/19 04:15:48;;;;;;;9.85;7.35;;;;;;;29.06;60.00;100757.34;5071435;28;20060;-61
2023/07/19 04:18:15;;;;;;;9.40;8.00;;;;;;;29.06;59.97;100760.91;5063879;28;20060;-60
2023/07/19 04:20:43;;;;;;;9.02;8.13;;;;;;;29.07;59.89;100750.84;5069030;28;20064;-60
2023/07/19 04:23:10;;;;;;;8.30;7.45;;;;;;;29.07;60.00;100748.94;5059307;28;20056;-60
2023/07/19 04:25:38;;;;;;;10.50;8.55;;;;;;;29.07;59.92;100746.22;5066632;28;20060;-60
2023/07/19 04:28:05;;;;;;;8.60;7.70;;;;;;;29.07;60.57;100748.94;5062204;28;20056;-61
2023/07/19 04:30:34;;;;;;;11.18;8.93;;;;;;;29.06;60.46;100755.44;5062804;28;20052;-62
2023/07/19 04:33:04;;;;;;;10.48;8.70;;;;;;;29.06;60.54;100750.00;5066880;28;20045;-62
2023/07/19 04:35:32;;;;;;;9.77;7.80;;;;;;;29.06;60.08;100750.00;5065896;28;20052;-62
2023/07/19 04:37:59;;;;;;;10.05;8.48;;;;;;;29.07;59.74;100751.69;5070692;28;20044;-61
2023/07/19 04:40:27;;;;;;;8.85;7.82;;;;;;;29.07;59.60;100757.13;5062584;28;20053;-62
2023/07/19 04:42:54;;;;;;;9.50;8.55;;;;;;;29.06;59.64;100766.34;5060894;28;20052;-62
2023/07/19 04:45:22;;;;;;;9.13;8.23;;;;;;;29.06;59.54;100779.16;5068824;28;20051;-62
2023/07/19 04:47:49;;;;;;;8.93;7.78;;;;;;;29.08;59.54;100779.78;5061856;28;20056;-61
2023/07/19 04:50:17;;;;;;;9.32;7.72;;;;;;;29.07;59.49;100783.56;5061474;28;20055;-62
2023/07/19 04:52:45;;;;;;;11.90;7.88;;;;;;;29.07;59.36;100792.56;5062404;28;20496;-62
2023/07/19 04:55:13;;;;;;;8.80;7.68;;;;;;;29.06;58.91;100801.78;5058963;28;20497;-61
2023/07/19 04:57:41;;;;;;;10.48;7.53;;;;;;;29.07;59.04;100802.63;5068823;28;20052;-60
2023/07/19 05:00:11;;;;;;;8.48;7.60;;;;;;;29.06;58.93;100799.06;5062730;28;20053;-60
2023/07/19 05:02:40;;;;;;;8.50;7.70;;;;;;;29.08;59.09;100791.50;5057344;28;20509;-60
2023/07/19 05:05:09;;;;;;;10.95;7.47;;;;;;;29.09;59.20;100784.22;5059404;28;20045;-60
2023/07/19 05:07:37;;;;;;;9.75;8.13;;;;;;;29.09;59.00;100789.66;5070932;28;20045;-61
2023/07/19 05:10:05;;;;;;;8.32;7.53;;;;;;;29.09;58.91;100784.22;5063089;28;20044;-62
2023/07/19 05:12:33;;;;;;;10.68;7.35;;;;;;;29.11;58.99;100787.56;5057102;28;20111;-61
2023/07/19 05:15:01;;;;;;;7.57;6.75;;;;;;;29.12;58.99;100782.94;5057666;28;20048;-62
2023/07/19 05:17:28;;;;;;;8.20;7.20;;;;;;;29.12;59.02;100777.50;5063225;28;20127;-60
2023/07/19 05:19:56;;;;;;;11.63;7.47;;;;;;;29.12;59.08;100780.22;5061073;28;20053;-60
2023/07/19 05:22:24;;;;;;;8.70;7.47;;;;;;;29.11;58.81;100773.09;5058667;28;20053;-60
2023/07/19 05:24:52;;;;;;;12.15;8.07;;;;;;;29.12;59.03;100777.50;5058941;28;20408;-60
2023/07/19 05:27:20;;;;;;;8.55;7.47;;;;;;;29.12;58.85;100786.50;5064067;28;20059;-60
2023/07/19 05:29:47;;;;;;;8.70;7.40;;;;;;;29.13;58.57;100787.34;5061767;28;20508;-60
2023/07/19 05:32:15;;;;;;;9.85;8.15;;;;;;;29.13;58.52;100777.31;5061758;28;20067;-60
2023/07/19 05:34:42;;;;;;;9.07;7.82;;;;;;;29.14;58.62;100770.81;5064880;28;20047;-60
2023/07/19 05:37:10;;;;;;;8.38;7.53;;;;;;;29.15;58.32;100777.09;5062541;28;20045;-60
2023/07/19 05:39:37;;;;;;;8.75;7.35;;;;;;;29.15;58.52;100779.84;5068849;28;20500;-60
2023/07/19 05:42:05;;;;;;;8.60;7.25;;;;;;;29.15;58.43;100774.38;5059320;28;20045;-60
2023/07/19 05:44:32;;;;;;;7.85;7.07;;;;;;;29.16;58.11;100773.34;5059164;28;20047;-60
2023/07/19 05:47:00;;;;;;;10.35;7.70;;;;;;;29.16;58.09;100776.91;5065454;28;20045;-60
2023/07/19 05:49:27;;;;;;;11.45;8.07;;;;;;;29.18;57.96;100783.00;5054747;28;20041;-60
2023/07/19 05:51:55;;;;;;;10.07;7.97;;;;;;;29.18;58.17;100783.00;5061394;28;20412;-60
2023/07/19 05:54:22;;;;;;;12.18;8.02;;;;;;;29.19;57.72;100776.50;5065104;28;20041;-60
2023/07/19 05:56:50;;;;;;;8.98;7.60;;;;;;;29.21;58.11;100781.75;5064787;28;20051;-63
2023/07/19 05:59:17;;;;;;;8.60;7.68;;;;;;;29.22;57.98;100784.31;5054537;28;20048;-62
2023/07/19 06:01:45;;;;;;;9.13;7.78;;;;;;;29.23;58.12;100776.97;5061614;28;20409;-62
2023/07/19 06:04:13;;;;;;;8.85;7.50;;;;;;;29.24;58.35;100765.00;5069200;28;20041;-62
2023/07/19 06:06:40;;;;;;;10.82;7.22;;;;;;;29.24;58.68;100773.19;5055920;28;20056;-62
2023/07/19 06:09:08;;;;;;;7.68;6.63;;;;;;;29.25;58.77;100766.69;5061165;28;20484;-62
2023/07/19 06:11:36;;;;;;;7.40;6.55;;;;;;;29.25;58.71;100775.72;5060463;28;20488;-62
2023/07/19 06:14:03;;;;;;;8.60;7.53;;;;;;;29.26;58.78;100780.13;5055666;28;20409;-60
2023/07/19 06:16:31;;;;;;;10.15;7.85;;;;;;;29.26;59.00;100780.13;5063164;28;20051;-60
2023/07/19 06:18:58;;;;;;;12.07;8.82;;;;;;;29.25;59.01;100794.81;5064446;28;20065;-60
2023/07/19 06:21:26;;;;;;;11.13;10.02;;;;;;;29.25;59.74;100797.53;5064247;28;20044;-60
2023/07/19 06:23:53;;;;;;;11.05;9.10;;;;;;;29.23;59.74;100785.97;5068206;28;20052;-60
2023/07/19 06:26:20;;;;;;;11.45;8.80;;;;;;;29.22;59.97;100787.03;5067631;28;20048;-59
2023/07/19 06:28:48;;;;;;;12.80;10.65;;;;;;;29.21;60.38;100784.47;5064430;28;20048;-59
2023/07/19 06:31:15;;;;;;;16.00;11.10;;;;;;;29.20;60.51;100778.19;5064026;28;20108;-60
2023/07/19 06:33:43;;;;;;;14.27;9.90;;;;;;;29.20;60.59;100775.47;5067375;28;20060;-59
2023/07/19 06:36:10;;;;;;;11.73;9.45;;;;;;;29.21;60.26;100781.75;5067588;28;20044;-52
2023/07/19 06:38:37;;;;;;;10.93;9.82;;;;;;;29.23;60.15;100790.59;5064079;28;20057;-51
2023/07/19 06:41:05;;;;;;;12.52;9.80;;;;;;;29.25;59.93;100780.31;5064085;28;20045;-50
2023/07/19 06:43:32;;;;;;;9.90;8.90;;;;;;;29.26;60.13;100792.94;5060889;28;20048;-51
2023/07/19 06:46:00;;;;;;;11.32;10.13;;;;;;;29.26;60.24;100791.03;5066886;28;20052;-52
2023/07/19 06:48:27;;;;;;;12.95;10.02;;;;;;;29.27;60.09;100791.88;5063667;28;20037;-50
2023/07/19 06:50:56;;;;;;;10.40;8.43;;;;;;;29.29;60.22;100800.69;5064173;28;20064;-49
2023/07/19 06:53:24;;;;;;;10.30;9.02;;;;;;;29.29;59.80;100797.97;5067465;28;20055;-51
2023/07/19 06:55:53;;;;;;;11.45;8.57;;;;;;;29.30;60.22;100802.41;5067436;28;20063;-49
2023/07/19 06:58:21;;;;;;;10.60;9.13;;;;;;;29.31;59.71;100809.53;5063244;28;20521;-53
2023/07/19 07:00:48;;;;;;;11.43;9.07;;;;;;;29.31;59.97;100799.47;5064219;28;20045;-51
2023/07/19 07:03:16;;;;;;;10.48;8.85;;;;;;;29.32;60.23;100800.28;5071932;28;20040;-50
2023/07/19 07:05:45;;;;;;;9.70;8.73;;;;;;;29.33;59.65;100801.97;5063146;28;20041;-53
2023/07/19 07:08:12;;;;;;;12.45;9.30;;;;;;;29.34;59.62;100806.41;5073129;28;20040;-60
2023/07/19 07:10:43;;;;;;;9.90;8.90;;;;;;;29.34;59.84;100803.69;5065749;28;20408;-60
2023/07/19 07:13:10;;;;;;;9.98;8.75;;;;;;;29.37;59.59;100802.44;5072660;28;20508;-60
2023/07/19 07:15:38;;;;;;;10.82;8.95;;;;;;;29.36;59.52;100811.66;5062932;28;20041;-59
2023/07/19 07:18:05;;;;;;;10.35;8.90;;;;;;;29.37;59.95;100813.34;5072370;28;20044;-52
2023/07/19 07:20:36;;;;;;;11.30;8.88;;;;;;;29.39;59.62;100805.81;5065846;28;20049;-50
2023/07/19 07:23:03;;;;;;;13.90;9.93;;;;;;;29.38;59.74;100802.25;5062725;28;20040;-50
2023/07/19 07:25:30;;;;;;;11.35;10.20;;;;;;;29.39;60.21;100809.38;5062879;28;20048;-50
2023/07/19 07:27:59;;;;;;;10.13;9.13;;;;;;;29.39;59.95;100809.38;5068894;28;20053;-60
2023/07/19 07:30:27;;;;;;;12.73;9.95;;;;;;;29.41;59.94;100820.06;5064704;28;20112;-60
2023/07/19 07:32:54;;;;;;;11.70;9.68;;;;;;;29.40;59.86;100813.78;5066952;28;20064;-60
2023/07/19 07:35:21;;;;;;;10.63;9.55;;;;;;;29.40;59.76;100802.03;5060069;28;20051;-60
2023/07/19 07:37:49;;;;;;;10.57;9.48;;;;;;;29.41;60.09;100810.03;5069174;28;20063;-52
2023/07/19 07:40:16;;;;;;;10.13;9.13;;;;;;;29.42;60.01;100817.16;5063314;28;20056;-53
2023/07/19 07:42:44;;;;;;;10.75;9.65;;;;;;;29.42;59.42;100817.16;5064799;28;20044;-52
2023/07/19 07:45:11;;;;;;;11.25;9.40;;;;;;;29.43;59.62;100824.31;5070794;28;20040;-59
2023/07/19 07:47:39;;;;;;;11.77;9.55;;;;;;;29.43;59.73;100816.13;5066743;28;20049;-60
2023/07/19 07:50:08;;;;;;;10.13;9.13;;;;;;;29.45;59.78;100813.19;5064246;28;20049;-60
2023/07/19 07:52:38;;;;;;;10.63;9.45;;;;;;;29.45;59.70;100799.53;5072507;28;20041;-60
2023/07/19 07:55:06;;;;;;;10.60;9.50;;;;;;;29.45;59.63;100803.13;5070539;28;20049;-60
2023/07/19 07:57:34;;;;;;;11.23;10.07;;;;;;;29.45;59.47;100784.06;5066903;28;20052;-60
2023/07/19 08:00:02;;;;;;;10.93;9.43;;;;;;;29.45;59.64;100778.59;5064036;28;20049;-60
2023/07/19 08:02:34;;;;;;;10.13;9.23;;;;;;;29.46;59.54;100758.44;5078893;28;20056;-60
2023/07/19 08:05:04;;;;;;;11.80;9.98;;;;;;;29.46;60.12;100747.53;5061733;28;20044;-59
2023/07/19 08:07:32;;;;;;;11.38;9.25;;;;;;;29.47;61.38;100748.38;5064567;28;20048;-59
2023/07/19 08:09:59;;;;;;;11.32;10.18;;;;;;;29.47;61.80;100737.47;5069083;28;20412;-59
2023/07/19 08:12:28;;;;;;;10.23;8.80;;;;;;;29.46;62.14;100733.06;5068215;28;20416;-59
2023/07/19 08:14:55;;;;;;;10.95;9.07;;;;;;;29.45;62.15;100742.25;5060055;28;20044;-59
2023/07/19 08:17:22;;;;;;;11.55;9.43;;;;;;;29.44;62.63;100740.59;5060319;28;20048;-59
2023/07/19 08:19:50;;;;;;;9.38;8.48;;;;;;;29.43;62.42;100714.38;5064114;28;20049;-59
2023/07/19 08:22:26;;;;;;;11.00;9.70;;;;;;;29.42;62.81;100708.06;5065844;28;20044;-59
2023/07/19 08:24:53;;;;;;;10.50;9.18;;;;;;;29.43;63.13;100717.94;5056277;28;20048;-59
2023/07/19 08:27:21;;;;;;;9.23;8.43;;;;;;;29.43;62.88;100717.09;5060243;28;20045;-53
2023/07/19 08:29:48;;;;;;;10.65;9.65;;;;;;;29.42;63.18;100704.50;5063413;28;20045;-50
2023/07/19 08:32:16;;;;;;;9.57;8.68;;;;;;;29.42;63.35;100701.78;5063678;28;20052;-50
2023/07/19 08:34:43;;;;;;;9.82;8.82;;;;;;;29.42;63.29;100696.31;5060961;28;20048;-52
2023/07/19 08:37:11;;;;;;;14.48;10.05;;;;;;;29.43;63.37;100698.84;5070619;28;20492;-59
2023/07/19 08:39:38;;;;;;;11.10;10.05;;;;;;;29.40;63.93;100693.78;5065991;28;20048;-59
2023/07/19 08:42:06;;;;;;;10.73;9.73;;;;;;;29.41;64.68;100684.59;5058570;28;20052;-59
2023/07/19 08:44:33;;;;;;;10.55;9.48;;;;;;;29.41;64.85;100689.16;5057904;28;20049;-59
2023/07/19 08:47:03;;;;;;;11.52;10.18;;;;;;;29.39;64.95;100683.94;5068633;28;20052;-59
2023/07/19 08:49:33;;;;;;;11.43;10.32;;;;;;;29.39;64.72;100694.00;5065291;28;20037;-59
2023/07/19 08:52:02;;;;;;;11.00;9.98;;;;;;;29.37;65.17;100683.28;5061479;28;20056;-59
2023/07/19 08:54:30;;;;;;;10.60;9.60;;;;;;;29.37;65.26;100683.28;5069241;28;20484;-59
2023/07/19 08:56:57;;;;;;;11.15;9.98;;;;;;;29.36;65.47;100686.22;5065204;28;20048;-50
2023/07/19 08:59:25;;;;;;;11.35;10.25;;;;;;;29.36;65.56;100681.59;5070994;28;20045;-53
2023/07/19 09:01:52;;;;;;;10.40;9.43;;;;;;;29.36;65.54;100676.13;5061614;28;20044;-53
2023/07/19 09:04:19;;;;;;;12.38;11.05;;;;;;;29.37;65.77;100666.06;5056927;28;20049;-50
2023/07/19 09:06:48;;;;;;;12.10;10.93;;;;;;;29.37;65.79;100666.91;5064819;28;20040;-59
2023/07/19 09:09:19;;;;;;;10.55;9.55;;;;;;;29.37;66.18;100661.44;5062919;28;20049;-59
2023/07/19 09:11:49;;;;;;;11.20;10.15;;;;;;;29.39;65.94;100667.56;5063022;28;20063;-58
2023/07/19 09:14:17;;;;;;;11.93;10.70;;;;;;;29.41;65.22;100664.63;5055847;28;20041;-59
2023/07/19 09:16:46;;;;;;;12.50;11.13;;;;;;;29.41;65.58;100667.34;5064946;28;20041;-58
2023/07/19 09:19:14;;;;;;;14.18;11.90;;;;;;;29.40;65.71;100680.16;5071158;28;20049;-59
2023/07/19 09:21:43;;;;;;;13.75;12.35;;;;;;;29.36;64.51;100691.66;5062986;28;20045;-59
2023/07/19 09:24:11;;;;;;;14.10;12.68;;;;;;;29.15;61.83;100687.16;5065606;28;20067;-59
2023/07/19 09:26:53;;;;;;;15.20;11.48;;;;;;;28.95;60.52;100693.28;5064633;28;20037;-52
2023/07/19 09:29:20;;;;;;;15.82;11.13;;;;;;;28.77;59.96;100698.41;5070337;28;20052;-53
2023/07/19 09:31:55;;;;;;;13.20;11.15;;;;;;;28.62;59.05;100684.00;5067924;28;20055;-50
2023/07/19 09:34:37;;;;;;;12.23;10.55;;;;;;;28.50;58.69;100681.81;5068984;28;20055;-52
2023/07/19 09:37:05;;;;;;;15.02;10.88;;;;;;;28.37;57.75;100680.88;5064065;28;20072;-53
2023/07/19 09:39:35;;;;;;;13.75;9.85;;;;;;;28.26;57.64;100663.13;5056221;28;20527;-53
2023/07/19 09:42:03;;;;;;;14.73;10.50;;;;;;;28.17;56.73;100665.16;5064513;28;20053;-54
2023/07/19 09:44:33;;;;;;;10.93;9.20;;;;;;;28.10;56.24;100654.19;5070707;28;20051;-53
2023/07/19 09:47:01;;;;;;;10.38;9.40;;;;;;;28.00;56.01;100667.28;5060824;28;20041;-59
2023/07/19 09:49:42;;;;;;;11.15;10.05;;;;;;;27.91;55.05;100654.81;5065526;28;20052;-59
2023/07/19 09:52:16;;;;;;;11.50;10.07;;;;;;;27.84;55.13;100643.03;5068180;28;20499;-59
2023/07/19 09:54:44;;;;;;;11.13;9.98;;;;;;;27.78;54.67;100649.25;5073345;28;20051;-60
2023/07/19 09:57:12;;;;;;;11.00;9.52;;;;;;;27.73;54.62;100635.34;5066211;28;20415;-53
2023/07/19 09:59:45;;;;;;;10.10;9.00;;;;;;;27.66;53.52;100623.53;5070494;28;20052;-53
2023/07/19 10:02:14;;;;;;;10.68;9.50;;;;;;;27.59;53.30;100620.78;5058440;28;20408;-52
2023/07/19 10:04:42;;;;;;;10.50;9.50;;;;;;;27.54;52.63;100628.63;5065799;28;20044;-59
2023/07/19 10:07:18;;;;;;;9.82;8.77;;;;;;;27.49;52.32;100628.38;5067201;28;20045;-59
2023/07/19 10:09:47;;;;;;;9.00;8.10;;;;;;;27.43;51.89;100626.41;5068231;28;20048;-59
2023/07/19 10:12:17;;;;;;;9.38;8.45;;;;;;;27.39;51.55;100616.94;5068683;28;20052;-59
2023/07/19 10:15:07;;;;;;;10.00;9.00;;;;;;;27.33;51.04;100610.41;5067486;28;20048;-59
2023/07/19 10:17:54;;;;;;;9.23;8.07;;;;;;;27.27;50.85;100611.19;5068098;28;20400;-59
2023/07/19 10:20:33;;;;;;;9.10;7.68;;;;;;;27.22;50.67;100611.72;5066332;28;20408;-59
2023/07/19 10:23:05;;;;;;;9.57;8.38;;;;;;;27.18;50.53;100604.97;5058255;28;20052;-59
2023/07/19 10:25:47;;;;;;;9.70;8.40;;;;;;;27.17;50.72;100602.47;5071509;28;20055;-59
2023/07/19 10:28:31;;;;;;;9.35;8.07;;;;;;;27.14;50.71;100609.09;5067715;28;20056;-59
2023/07/19 10:31:01;;;;;;;10.32;8.32;;;;;;;27.13;51.42;100607.44;5062196;28;20048;-59
2023/07/19 10:33:48;;;;;;;10.55;8.23;;;;;;;27.17;52.56;100597.03;5063372;28;20056;-59
2023/07/19 10:36:16;;;;;;;9.80;8.77;;;;;;;27.18;52.74;100595.97;5072777;28;20044;-55
2023/07/19 10:38:43;;;;;;;10.15;8.80;;;;;;;27.18;52.20;100595.97;5067522;28;20492;-59
2023/07/19 10:41:12;;;;;;;9.20;8.30;;;;;;;27.18;52.33;100590.53;5063952;28;20070;-59
2023/07/19 10:43:39;;;;;;;12.18;8.75;;;;;;;27.16;51.97;100596.19;5073778;28;20040;-59
2023/07/19 10:46:18;;;;;;;11.70;8.88;;;;;;;27.15;51.70;100589.06;5071789;28;20045;-58
2023/07/19 10:48:48;;;;;;;9.25;8.35;;;;;;;27.13;51.51;100585.69;5069057;28;20044;-54
2023/07/19 10:51:17;;;;;;;9.80;8.80;;;;;;;27.11;51.55;100595.91;5067428;28;20041;-52
2023/07/19 10:53:59;;;;;;;8.65;7.75;;;;;;;27.10;51.26;100602.34;5073621;28;20479;-53
2023/07/19 10:56:28;;;;;;;9.52;7.60;;;;;;;27.09;51.17;100595.22;5059988;28;20037;-59
2023/07/19 10:58:59;;;;;;;8.65;7.75;;;;;;;27.07;51.07;100598.13;5071504;28;20047;-59
2023/07/19 11:01:29;;;;;;;9.75;7.78;;;;;;;27.05;50.70;100593.91;5073851;28;20047;-59
2023/07/19 11:04:05;;;;;;;8.18;7.25;;;;;;;27.02;50.83;100587.00;5064615;28;20052;-59
2023/07/19 11:06:34;;;;;;;8.40;7.55;;;;;;;27.00;50.37;100586.31;5064352;28;20068;-59
2023/07/19 11:09:06;;;;;;;9.30;7.43;;;;;;;27.00;50.41;100589.03;5073558;28;20063;-59
2023/07/19 11:11:38;;;;;;;13.13;8.52;;;;;;;26.98;50.15;100588.41;5070610;28;20061;-59
2023/07/19 11:14:06;;;;;;;8.77;7.90;;;;;;;26.95;50.39;100580.63;5066468;28;20040;-59
2023/07/19 11:16:34;;;;;;;10.07;7.68;;;;;;;26.93;50.18;100579.94;5060478;28;20054;-54
2023/07/19 11:19:01;;;;;;;8.82;7.70;;;;;;;26.91;49.98;100573.88;5073236;28;20048;-51
2023/07/19 11:21:29;;;;;;;8.77;7.88;;;;;;;26.89;49.68;100573.22;5064917;28;20488;-51
2023/07/19 11:23:56;;;;;;;8.68;7.65;;;;;;;26.87;49.75;100565.25;5069415;28;20048;-51
2023/07/19 11:26:24;;;;;;;8.55;7.75;;;;;;;26.84;49.41;100562.06;5070656;28;20048;-59
2023/07/19 11:28:57;;;;;;;8.00;7.20;;;;;;;26.83;49.11;100565.84;5066527;28;20047;-59